createdAt,value
2023-08-13T05:25:57.027Z,18.63
2023-08-13T05:31:04.375Z,18.70
2023-08-13T05:36:07.947Z,18.87
2023-08-13T05:41:10.738Z,19.03
2023-08-13T05:46:13.556Z,19.23
2023-08-13T05:51:17.146Z,19.41
2023-08-13T05:56:19.800Z,19.64
2023-08-13T06:01:22.448Z,19.81
2023-08-13T06:06:25.165Z,19.94
2023-08-13T06:11:27.814Z,20.04
2023-08-13T06:16:30.623Z,20.16
2023-08-13T06:21:33.339Z,20.26
2023-08-13T06:26:36.654Z,20.44
2023-08-13T06:31:43.343Z,20.72
2023-08-13T06:36:46.323Z,21.09
2023-08-13T06:41:48.973Z,21.32
2023-08-13T06:46:53.959Z,21.50
2023-08-13T06:51:56.771Z,21.71
2023-08-13T06:56:59.649Z,22.03
2023-08-13T07:02:02.408Z,22.47
2023-08-13T07:07:05.300Z,22.84
2023-08-13T07:12:08.101Z,23.14
2023-08-13T07:17:10.702Z,22.76
2023-08-13T07:22:14.634Z,22.83
2023-08-13T07:27:17.871Z,23.02
2023-08-13T07:32:20.919Z,23.43
2023-08-13T07:37:25.163Z,24.36
2023-08-13T07:42:28.891Z,28.37
2023-08-13T07:47:31.545Z,32.63
2023-08-13T07:52:35.565Z,34.26
2023-08-13T07:57:38.233Z,35.48
2023-08-13T08:02:41.394Z,36.55
2023-08-13T08:07:44.043Z,35.91
2023-08-13T08:12:46.759Z,32.78
2023-08-13T08:17:49.618Z,31.23
2023-08-13T08:22:52.922Z,30.88
2023-08-13T08:27:55.567Z,30.39
2023-08-13T08:32:58.321Z,29.83
2023-08-13T08:38:01.216Z,29.54
2023-08-13T08:43:04.032Z,29.43
2023-08-13T08:48:08.112Z,29.80
2023-08-13T08:53:11.603Z,29.98
2023-08-13T08:58:14.300Z,30.50
2023-08-13T09:03:17.702Z,30.96
2023-08-13T09:08:20.527Z,31.21
2023-08-13T09:13:23.539Z,31.52
2023-08-13T09:18:26.341Z,31.55
2023-08-13T09:23:28.987Z,31.45
2023-08-13T09:28:31.668Z,31.29
2023-08-13T09:33:34.376Z,31.26
2023-08-13T09:38:37.298Z,30.04
2023-08-13T09:43:40.980Z,30.41
2023-08-13T09:48:44.860Z,30.62
2023-08-13T09:53:53.973Z,31.25
2023-08-13T09:58:56.985Z,30.40
2023-08-13T10:04:01.122Z,30.50
2023-08-13T10:09:03.965Z,31.07
2023-08-13T10:14:06.633Z,31.10
2023-08-13T10:19:10.101Z,29.86
2023-08-13T10:24:13.517Z,29.01
2023-08-13T10:29:20.406Z,29.06
2023-08-13T10:34:42.174Z,29.95
2023-08-13T10:39:46.877Z,30.29
2023-08-13T10:44:49.542Z,30.04
2023-08-13T10:49:52.234Z,30.23
2023-08-13T10:54:59.042Z,30.28
2023-08-13T11:00:03.971Z,30.12
2023-08-13T11:05:07.651Z,29.56
2023-08-13T11:10:17.358Z,29.83
2023-08-13T11:15:20.057Z,29.11
2023-08-13T11:20:22.968Z,28.52
2023-08-13T11:25:27.804Z,28.18
2023-08-13T11:30:30.504Z,28.74
2023-08-13T11:35:34.104Z,28.79
2023-08-13T11:40:38.681Z,29.16
2023-08-13T11:45:42.740Z,29.92
2023-08-13T11:50:56.273Z,29.79
2023-08-13T11:56:04.918Z,29.25
2023-08-13T12:01:07.922Z,28.89
2023-08-13T12:06:12.592Z,29.17
2023-08-13T12:11:15.969Z,30.65
2023-08-13T12:16:18.566Z,31.46
2023-08-13T12:21:21.249Z,31.02
2023-08-13T12:26:23.986Z,30.33
2023-08-13T12:31:27.984Z,30.04
2023-08-13T12:36:30.755Z,29.66
2023-08-13T12:41:39.913Z,29.60
2023-08-13T12:46:43.088Z,29.05
2023-08-13T12:51:45.775Z,28.58
2023-08-13T12:56:48.513Z,28.75
2023-08-13T13:01:51.176Z,28.90
2023-08-13T13:06:53.842Z,28.99
2023-08-13T13:11:56.497Z,28.85
2023-08-13T13:16:59.367Z,28.82
2023-08-13T13:22:02.608Z,29.35
2023-08-13T13:27:05.734Z,29.98
2023-08-13T13:32:08.471Z,30.43
2023-08-13T13:37:11.555Z,30.75
2023-08-13T13:42:14.456Z,30.79
2023-08-13T13:47:17.425Z,30.73
2023-08-13T13:52:20.424Z,30.84
2023-08-13T13:57:25.163Z,30.77
2023-08-13T14:02:27.956Z,30.72
2023-08-13T14:07:30.965Z,30.73
2023-08-13T14:12:33.756Z,30.54
2023-08-13T14:17:36.447Z,30.39
2023-08-13T14:22:39.097Z,30.28
2023-08-13T14:27:41.719Z,29.95
2023-08-13T14:32:45.245Z,29.79
2023-08-13T14:37:47.918Z,29.56
2023-08-13T14:42:50.545Z,29.38
2023-08-13T14:47:53.236Z,29.29
2023-08-13T14:52:55.948Z,29.25
2023-08-13T14:57:58.623Z,29.20
2023-08-13T15:03:01.474Z,29.27
2023-08-13T15:08:04.519Z,29.22
2023-08-13T15:13:07.280Z,29.36
2023-08-13T15:18:10.054Z,29.26
2023-08-13T15:23:12.817Z,29.30
2023-08-13T15:28:15.701Z,29.22
2023-08-13T15:33:18.352Z,29.03
2023-08-13T15:38:23.082Z,29.01
2023-08-13T15:43:26.130Z,28.82
2023-08-13T15:48:29.409Z,28.78
2023-08-13T15:53:32.187Z,28.61
2023-08-13T15:58:37.246Z,28.38
2023-08-13T16:03:41.442Z,28.21
2023-08-13T16:08:45.199Z,28.12
2023-08-13T16:13:47.855Z,27.96
2023-08-13T16:18:50.515Z,27.85
2023-08-13T16:24:04.693Z,27.71
2023-08-13T16:29:15.629Z,27.57
2023-08-13T16:34:18.307Z,27.33
2023-08-13T16:39:20.936Z,27.29
2023-08-13T16:44:24.458Z,27.27
2023-08-13T16:49:27.454Z,27.24
2023-08-13T16:54:30.103Z,27.13
2023-08-13T16:59:32.823Z,26.93
2023-08-13T17:04:35.487Z,26.90
2023-08-13T17:09:38.132Z,26.75
2023-08-13T17:14:40.776Z,26.55
2023-08-13T17:19:43.438Z,26.51
2023-08-13T17:24:46.113Z,26.30
2023-08-13T17:29:48.831Z,26.05
2023-08-13T17:34:51.534Z,25.84
2023-08-13T17:39:54.238Z,25.63
2023-08-13T17:44:57.044Z,25.41
2023-08-13T17:49:59.766Z,25.31
2023-08-13T17:55:02.479Z,25.32
2023-08-13T18:00:06.814Z,25.15
2023-08-13T18:05:18.359Z,24.93
2023-08-13T18:10:21.195Z,24.84
2023-08-13T18:15:24.484Z,24.41
2023-08-13T18:20:27.418Z,24.11
2023-08-13T18:25:30.203Z,23.95
2023-08-13T18:30:32.943Z,23.87
2023-08-13T18:35:35.679Z,23.76
2023-08-13T18:40:38.431Z,23.51
2023-08-13T18:45:41.160Z,23.42
2023-08-13T18:50:43.892Z,23.19
2023-08-13T18:55:48.686Z,22.98
2023-08-13T19:00:51.592Z,22.94
2023-08-13T19:05:54.342Z,22.79
2023-08-13T19:10:59.607Z,22.70
2023-08-13T19:16:02.336Z,22.60
2023-08-13T19:21:05.119Z,22.42
2023-08-13T19:26:07.841Z,22.33
2023-08-13T19:31:10.624Z,22.27
2023-08-13T19:36:14.242Z,22.25
2023-08-13T19:41:16.935Z,22.21
2023-08-13T19:46:19.730Z,22.34
2023-08-13T19:51:22.472Z,22.37
2023-08-13T19:56:26.415Z,22.29
2023-08-13T20:01:29.129Z,22.20
2023-08-13T20:06:31.892Z,22.03
2023-08-13T20:11:34.840Z,21.92
2023-08-13T20:16:38.971Z,21.86
2023-08-13T20:21:49.081Z,21.83
2023-08-13T20:26:52.087Z,21.83
2023-08-13T20:31:54.803Z,21.62
2023-08-13T20:36:58.034Z,21.49
2023-08-13T20:42:01.048Z,21.50
2023-08-13T20:47:03.873Z,21.38
2023-08-13T20:52:06.746Z,21.30
2023-08-13T20:57:09.406Z,21.18
2023-08-13T21:02:12.183Z,21.06
2023-08-13T21:07:14.862Z,21.02
2023-08-13T21:12:17.890Z,20.98
2023-08-13T21:17:20.779Z,20.92
2023-08-13T21:22:23.494Z,20.79
2023-08-13T21:27:26.211Z,20.69
2023-08-13T21:32:28.852Z,20.66
2023-08-13T21:37:33.008Z,20.67
2023-08-13T21:42:35.791Z,20.76
2023-08-13T21:47:38.634Z,20.75
2023-08-13T21:52:41.319Z,20.89
2023-08-13T21:57:44.008Z,20.60
